sensor_id;sensor_type;location;lat;lon;timestamp;P1;durP1;ratioP1;P2;durP2;ratioP2
16822;SDS011;8528;49.976;11.858;2022-09-09T00:05:12;3.27;;;1.40;;
16822;SDS011;8528;49.976;11.858;2022-09-09T00:07:49;2.47;;;1.40;;
16822;SDS011;8528;49.976;11.858;2022-09-09T00:10:28;2.07;;;1.50;;
16822;SDS011;8528;49.976;11.858;2022-09-09T00:13:11;1.50;;;1.40;;
16822;SDS011;8528;49.976;11.858;2022-09-09T00:15:51;1.20;;;1.10;;
16822;SDS011;8528;49.976;11.858;2022-09-09T00:18:57;1.20;;;1.10;;
16822;SDS011;8528;49.976;11.858;2022-09-09T00:21:36;2.10;;;1.40;;
16822;SDS011;8528;49.976;11.858;2022-09-09T00:24:18;1.40;;;1.30;;
16822;SDS011;8528;49.976;11.858;2022-09-09T00:27:04;3.70;;;1.70;;
16822;SDS011;8528;49.976;11.858;2022-09-09T00:32:53;1.50;;;1.40;;
16822;SDS011;8528;49.976;11.858;2022-09-09T00:35:29;2.73;;;1.40;;
16822;SDS011;8528;49.976;11.858;2022-09-09T00:41:11;1.03;;;1.03;;
16822;SDS011;8528;49.976;11.858;2022-09-09T00:43:43;3.23;;;1.30;;
16822;SDS011;8528;49.976;11.858;2022-09-09T00:52:18;1.30;;;1.20;;
16822;SDS011;8528;49.976;11.858;2022-09-09T00:58:22;1.30;;;1.20;;
16822;SDS011;8528;49.976;11.858;2022-09-09T01:00:55;1.80;;;1.27;;
16822;SDS011;8528;49.976;11.858;2022-09-09T01:03:48;1.70;;;1.27;;
16822;SDS011;8528;49.976;11.858;2022-09-09T01:06:33;1.33;;;1.23;;
16822;SDS011;8528;49.976;11.858;2022-09-09T01:14:44;1.30;;;1.20;;
16822;SDS011;8528;49.976;11.858;2022-09-09T01:17:21;1.10;;;1.00;;
16822;SDS011;8528;49.976;11.858;2022-09-09T01:28:10;1.03;;;1.00;;
16822;SDS011;8528;49.976;11.858;2022-09-09T01:30:42;1.10;;;1.00;;
16822;SDS011;8528;49.976;11.858;2022-09-09T01:33:16;1.20;;;1.10;;
16822;SDS011;8528;49.976;11.858;2022-09-09T01:35:51;2.50;;;1.43;;
16822;SDS011;8528;49.976;11.858;2022-09-09T01:38:22;1.30;;;1.20;;
16822;SDS011;8528;49.976;11.858;2022-09-09T01:40:53;1.23;;;1.17;;
16822;SDS011;8528;49.976;11.858;2022-09-09T01:43:21;1.77;;;1.20;;
16822;SDS011;8528;49.976;11.858;2022-09-09T01:45:59;1.40;;;1.20;;
16822;SDS011;8528;49.976;11.858;2022-09-09T01:48:28;1.30;;;1.20;;
16822;SDS011;8528;49.976;11.858;2022-09-09T01:50:55;1.30;;;1.20;;
16822;SDS011;8528;49.976;11.858;2022-09-09T01:53:22;2.97;;;1.20;;
16822;SDS011;8528;49.976;11.858;2022-09-09T01:55:55;1.13;;;1.07;;
16822;SDS011;8528;49.976;11.858;2022-09-09T01:58:42;1.30;;;1.20;;
16822;SDS011;8528;49.976;11.858;2022-09-09T02:01:33;1.50;;;1.40;;
16822;SDS011;8528;49.976;11.858;2022-09-09T02:04:24;1.70;;;1.20;;
16822;SDS011;8528;49.976;11.858;2022-09-09T02:06:55;1.20;;;1.10;;
16822;SDS011;8528;49.976;11.858;2022-09-09T02:09:24;2.30;;;1.10;;
16822;SDS011;8528;49.976;11.858;2022-09-09T02:11:55;1.40;;;1.30;;
16822;SDS011;8528;49.976;11.858;2022-09-09T02:15:00;2.03;;;1.33;;
16822;SDS011;8528;49.976;11.858;2022-09-09T02:17:32;1.40;;;1.30;;
16822;SDS011;8528;49.976;11.858;2022-09-09T02:20:10;1.30;;;1.20;;
16822;SDS011;8528;49.976;11.858;2022-09-09T02:22:41;1.63;;;1.10;;
16822;SDS011;8528;49.976;11.858;2022-09-09T02:25:11;2.60;;;1.20;;
16822;SDS011;8528;49.976;11.858;2022-09-09T02:27:44;1.20;;;1.10;;
16822;SDS011;8528;49.976;11.858;2022-09-09T02:30:16;1.30;;;1.10;;
16822;SDS011;8528;49.976;11.858;2022-09-09T02:32:46;1.70;;;1.40;;
16822;SDS011;8528;49.976;11.858;2022-09-09T02:35:21;1.93;;;1.20;;
16822;SDS011;8528;49.976;11.858;2022-09-09T02:37:53;1.50;;;1.20;;
16822;SDS011;8528;49.976;11.858;2022-09-09T02:40:30;1.20;;;1.10;;
16822;SDS011;8528;49.976;11.858;2022-09-09T02:42:57;1.20;;;1.10;;
16822;SDS011;8528;49.976;11.858;2022-09-09T02:45:25;1.30;;;1.20;;
16822;SDS011;8528;49.976;11.858;2022-09-09T02:48:09;1.50;;;1.23;;
16822;SDS011;8528;49.976;11.858;2022-09-09T02:50:48;1.30;;;1.20;;
16822;SDS011;8528;49.976;11.858;2022-09-09T02:53:21;2.80;;;1.27;;
16822;SDS011;8528;49.976;11.858;2022-09-09T02:55:58;2.83;;;1.23;;
16822;SDS011;8528;49.976;11.858;2022-09-09T02:58:35;1.23;;;1.13;;
16822;SDS011;8528;49.976;11.858;2022-09-09T03:01:05;1.93;;;1.30;;
16822;SDS011;8528;49.976;11.858;2022-09-09T03:03:32;1.03;;;1.00;;
16822;SDS011;8528;49.976;11.858;2022-09-09T03:06:06;1.30;;;1.20;;
16822;SDS011;8528;49.976;11.858;2022-09-09T03:08:37;1.50;;;1.40;;
16822;SDS011;8528;49.976;11.858;2022-09-09T03:11:04;1.33;;;1.23;;
16822;SDS011;8528;49.976;11.858;2022-09-09T03:13:31;1.67;;;1.57;;
16822;SDS011;8528;49.976;11.858;2022-09-09T03:15:58;2.30;;;1.17;;
16822;SDS011;8528;49.976;11.858;2022-09-09T03:18:25;6.53;;;3.90;;
16822;SDS011;8528;49.976;11.858;2022-09-09T03:20:51;2.77;;;1.70;;
16822;SDS011;8528;49.976;11.858;2022-09-09T03:23:20;2.37;;;1.53;;
16822;SDS011;8528;49.976;11.858;2022-09-09T03:25:49;1.60;;;1.50;;
16822;SDS011;8528;49.976;11.858;2022-09-09T03:28:17;1.73;;;1.63;;
16822;SDS011;8528;49.976;11.858;2022-09-09T03:30:44;2.73;;;1.60;;
16822;SDS011;8528;49.976;11.858;2022-09-09T03:33:11;1.60;;;1.50;;
16822;SDS011;8528;49.976;11.858;2022-09-09T03:35:39;3.20;;;1.50;;
16822;SDS011;8528;49.976;11.858;2022-09-09T03:38:11;1.97;;;1.50;;
16822;SDS011;8528;49.976;11.858;2022-09-09T03:40:38;3.57;;;1.57;;
16822;SDS011;8528;49.976;11.858;2022-09-09T03:43:08;1.83;;;1.73;;
16822;SDS011;8528;49.976;11.858;2022-09-09T03:45:35;3.67;;;1.40;;
16822;SDS011;8528;49.976;11.858;2022-09-09T03:48:02;3.07;;;1.40;;
16822;SDS011;8528;49.976;11.858;2022-09-09T03:50:31;1.70;;;1.40;;
16822;SDS011;8528;49.976;11.858;2022-09-09T03:53:01;2.70;;;1.40;;
16822;SDS011;8528;49.976;11.858;2022-09-09T03:55:35;2.27;;;1.50;;
16822;SDS011;8528;49.976;11.858;2022-09-09T03:58:02;3.23;;;2.50;;
16822;SDS011;8528;49.976;11.858;2022-09-09T04:00:34;2.73;;;2.40;;
16822;SDS011;8528;49.976;11.858;2022-09-09T04:03:01;2.30;;;2.10;;
16822;SDS011;8528;49.976;11.858;2022-09-09T04:05:28;2.93;;;2.40;;
16822;SDS011;8528;49.976;11.858;2022-09-09T04:07:55;2.60;;;2.30;;
16822;SDS011;8528;49.976;11.858;2022-09-09T04:10:21;2.30;;;2.03;;
16822;SDS011;8528;49.976;11.858;2022-09-09T04:12:49;2.83;;;2.50;;
16822;SDS011;8528;49.976;11.858;2022-09-09T04:15:15;2.97;;;2.23;;
16822;SDS011;8528;49.976;11.858;2022-09-09T04:17:44;3.10;;;2.20;;
16822;SDS011;8528;49.976;11.858;2022-09-09T04:20:11;2.97;;;2.10;;
16822;SDS011;8528;49.976;11.858;2022-09-09T04:22:45;3.73;;;2.10;;
16822;SDS011;8528;49.976;11.858;2022-09-09T04:25:12;2.03;;;1.80;;
16822;SDS011;8528;49.976;11.858;2022-09-09T04:27:41;2.83;;;2.10;;
16822;SDS011;8528;49.976;11.858;2022-09-09T04:30:09;2.30;;;2.10;;
16822;SDS011;8528;49.976;11.858;2022-09-09T04:32:38;1.90;;;1.80;;
16822;SDS011;8528;49.976;11.858;2022-09-09T04:35:05;2.00;;;1.67;;
16822;SDS011;8528;49.976;11.858;2022-09-09T04:37:32;2.40;;;1.50;;
16822;SDS011;8528;49.976;11.858;2022-09-09T04:39:58;2.07;;;1.87;;
16822;SDS011;8528;49.976;11.858;2022-09-09T04:42:30;2.77;;;2.00;;
16822;SDS011;8528;49.976;11.858;2022-09-09T04:45:00;6.07;;;2.20;;
16822;SDS011;8528;49.976;11.858;2022-09-09T04:47:27;2.10;;;1.80;;
16822;SDS011;8528;49.976;11.858;2022-09-09T04:49:54;4.27;;;2.00;;
16822;SDS011;8528;49.976;11.858;2022-09-09T04:52:24;5.70;;;2.10;;
16822;SDS011;8528;49.976;11.858;2022-09-09T04:54:51;3.77;;;1.90;;
16822;SDS011;8528;49.976;11.858;2022-09-09T04:57:23;3.33;;;1.40;;
16822;SDS011;8528;49.976;11.858;2022-09-09T04:59:50;1.50;;;1.40;;
16822;SDS011;8528;49.976;11.858;2022-09-09T05:02:17;1.43;;;1.33;;
16822;SDS011;8528;49.976;11.858;2022-09-09T05:04:43;2.50;;;1.53;;
16822;SDS011;8528;49.976;11.858;2022-09-09T05:07:17;1.80;;;1.70;;
16822;SDS011;8528;49.976;11.858;2022-09-09T05:09:43;1.73;;;1.63;;
16822;SDS011;8528;49.976;11.858;2022-09-09T05:12:14;3.37;;;1.83;;
16822;SDS011;8528;49.976;11.858;2022-09-09T05:14:43;4.70;;;1.80;;
16822;SDS011;8528;49.976;11.858;2022-09-09T05:17:10;2.83;;;1.70;;
16822;SDS011;8528;49.976;11.858;2022-09-09T05:19:37;1.97;;;1.73;;
16822;SDS011;8528;49.976;11.858;2022-09-09T05:22:04;2.03;;;1.70;;
16822;SDS011;8528;49.976;11.858;2022-09-09T05:24:31;2.00;;;1.80;;
16822;SDS011;8528;49.976;11.858;2022-09-09T05:27:00;1.83;;;1.73;;
16822;SDS011;8528;49.976;11.858;2022-09-09T05:29:28;2.13;;;1.90;;
16822;SDS011;8528;49.976;11.858;2022-09-09T05:31:55;2.30;;;1.83;;
16822;SDS011;8528;49.976;11.858;2022-09-09T05:34:22;5.23;;;2.60;;
16822;SDS011;8528;49.976;11.858;2022-09-09T05:36:48;4.20;;;2.80;;
16822;SDS011;8528;49.976;11.858;2022-09-09T05:39:18;3.50;;;3.13;;
16822;SDS011;8528;49.976;11.858;2022-09-09T05:41:45;4.53;;;3.50;;
16822;SDS011;8528;49.976;11.858;2022-09-09T05:44:17;4.63;;;3.00;;
16822;SDS011;8528;49.976;11.858;2022-09-09T05:46:48;3.70;;;2.83;;
16822;SDS011;8528;49.976;11.858;2022-09-09T05:49:16;3.70;;;2.70;;
16822;SDS011;8528;49.976;11.858;2022-09-09T05:51:43;3.33;;;2.63;;
16822;SDS011;8528;49.976;11.858;2022-09-09T05:54:10;3.07;;;2.60;;
16822;SDS011;8528;49.976;11.858;2022-09-09T05:56:39;7.83;;;3.00;;
16822;SDS011;8528;49.976;11.858;2022-09-09T05:59:09;3.53;;;2.47;;
16822;SDS011;8528;49.976;11.858;2022-09-09T06:01:39;3.33;;;2.40;;
16822;SDS011;8528;49.976;11.858;2022-09-09T06:04:08;2.33;;;1.80;;
16822;SDS011;8528;49.976;11.858;2022-09-09T06:06:37;2.47;;;1.60;;
16822;SDS011;8528;49.976;11.858;2022-09-09T06:09:06;2.10;;;1.90;;
16822;SDS011;8528;49.976;11.858;2022-09-09T06:11:36;3.07;;;1.40;;
16822;SDS011;8528;49.976;11.858;2022-09-09T06:14:05;2.83;;;1.90;;
16822;SDS011;8528;49.976;11.858;2022-09-09T06:16:32;5.53;;;2.10;;
16822;SDS011;8528;49.976;11.858;2022-09-09T06:19:00;3.63;;;2.43;;
16822;SDS011;8528;49.976;11.858;2022-09-09T06:21:33;5.57;;;2.77;;
16822;SDS011;8528;49.976;11.858;2022-09-09T06:24:08;2.97;;;2.27;;
16822;SDS011;8528;49.976;11.858;2022-09-09T06:26:45;3.53;;;2.73;;
16822;SDS011;8528;49.976;11.858;2022-09-09T06:29:12;3.93;;;2.70;;
16822;SDS011;8528;49.976;11.858;2022-09-09T06:31:42;3.87;;;3.10;;
16822;SDS011;8528;49.976;11.858;2022-09-09T06:34:08;3.50;;;2.97;;
16822;SDS011;8528;49.976;11.858;2022-09-09T06:36:36;7.07;;;3.57;;
16822;SDS011;8528;49.976;11.858;2022-09-09T06:39:07;3.73;;;3.33;;
16822;SDS011;8528;49.976;11.858;2022-09-09T06:41:40;4.33;;;3.93;;
16822;SDS011;8528;49.976;11.858;2022-09-09T06:44:10;6.67;;;4.50;;
16822;SDS011;8528;49.976;11.858;2022-09-09T06:46:41;7.00;;;5.63;;
16822;SDS011;8528;49.976;11.858;2022-09-09T06:49:08;6.50;;;5.83;;
16822;SDS011;8528;49.976;11.858;2022-09-09T06:51:39;8.30;;;6.80;;
16822;SDS011;8528;49.976;11.858;2022-09-09T06:54:09;9.93;;;6.80;;
16822;SDS011;8528;49.976;11.858;2022-09-09T06:56:38;6.73;;;6.03;;
16822;SDS011;8528;49.976;11.858;2022-09-09T06:59:09;7.50;;;6.07;;
16822;SDS011;8528;49.976;11.858;2022-09-09T07:01:39;8.90;;;6.73;;
16822;SDS011;8528;49.976;11.858;2022-09-09T07:04:07;10.33;;;6.60;;
16822;SDS011;8528;49.976;11.858;2022-09-09T07:06:40;8.77;;;7.27;;
16822;SDS011;8528;49.976;11.858;2022-09-09T07:09:10;7.20;;;5.93;;
16822;SDS011;8528;49.976;11.858;2022-09-09T07:11:42;7.87;;;6.00;;
16822;SDS011;8528;49.976;11.858;2022-09-09T07:14:10;10.77;;;7.03;;
16822;SDS011;8528;49.976;11.858;2022-09-09T07:16:41;7.90;;;6.20;;
16822;SDS011;8528;49.976;11.858;2022-09-09T07:19:09;9.17;;;7.00;;
16822;SDS011;8528;49.976;11.858;2022-09-09T07:21:36;6.80;;;6.10;;
16822;SDS011;8528;49.976;11.858;2022-09-09T07:24:03;7.83;;;5.80;;
16822;SDS011;8528;49.976;11.858;2022-09-09T07:26:36;7.30;;;5.80;;
16822;SDS011;8528;49.976;11.858;2022-09-09T07:29:05;5.77;;;5.17;;
16822;SDS011;8528;49.976;11.858;2022-09-09T07:31:33;6.17;;;5.10;;
16822;SDS011;8528;49.976;11.858;2022-09-09T07:34:03;8.97;;;5.43;;
16822;SDS011;8528;49.976;11.858;2022-09-09T07:36:40;6.90;;;5.57;;
16822;SDS011;8528;49.976;11.858;2022-09-09T07:39:12;7.00;;;5.03;;
16822;SDS011;8528;49.976;11.858;2022-09-09T07:41:44;5.90;;;5.23;;
16822;SDS011;8528;49.976;11.858;2022-09-09T07:44:20;5.93;;;5.00;;
16822;SDS011;8528;49.976;11.858;2022-09-09T07:46:48;5.43;;;4.77;;
16822;SDS011;8528;49.976;11.858;2022-09-09T07:49:19;4.57;;;3.53;;
16822;SDS011;8528;49.976;11.858;2022-09-09T07:51:58;4.90;;;3.40;;
16822;SDS011;8528;49.976;11.858;2022-09-09T07:54:25;5.97;;;4.90;;
16822;SDS011;8528;49.976;11.858;2022-09-09T07:56:52;6.20;;;4.73;;
16822;SDS011;8528;49.976;11.858;2022-09-09T07:59:19;6.23;;;4.57;;
16822;SDS011;8528;49.976;11.858;2022-09-09T08:01:48;6.67;;;4.57;;
16822;SDS011;8528;49.976;11.858;2022-09-09T08:04:20;5.53;;;4.50;;
16822;SDS011;8528;49.976;11.858;2022-09-09T08:06:50;5.13;;;4.63;;
16822;SDS011;8528;49.976;11.858;2022-09-09T08:09:22;5.47;;;4.20;;
16822;SDS011;8528;49.976;11.858;2022-09-09T08:11:55;4.73;;;4.23;;
16822;SDS011;8528;49.976;11.858;2022-09-09T08:14:26;5.00;;;4.43;;
16822;SDS011;8528;49.976;11.858;2022-09-09T08:16:53;6.77;;;4.77;;
16822;SDS011;8528;49.976;11.858;2022-09-09T08:19:20;4.33;;;3.93;;
16822;SDS011;8528;49.976;11.858;2022-09-09T08:21:47;5.07;;;3.63;;
16822;SDS011;8528;49.976;11.858;2022-09-09T08:24:15;5.73;;;4.00;;
16822;SDS011;8528;49.976;11.858;2022-09-09T08:26:43;3.13;;;2.10;;
16822;SDS011;8528;49.976;11.858;2022-09-09T08:29:13;4.63;;;2.20;;
16822;SDS011;8528;49.976;11.858;2022-09-09T08:31:47;3.33;;;2.00;;
16822;SDS011;8528;49.976;11.858;2022-09-09T08:34:23;2.30;;;2.07;;
16822;SDS011;8528;49.976;11.858;2022-09-09T08:36:59;3.10;;;2.30;;
16822;SDS011;8528;49.976;11.858;2022-09-09T08:39:26;2.63;;;2.13;;
16822;SDS011;8528;49.976;11.858;2022-09-09T08:42:06;2.53;;;2.03;;
16822;SDS011;8528;49.976;11.858;2022-09-09T08:50:33;2.70;;;1.83;;
16822;SDS011;8528;49.976;11.858;2022-09-09T08:55:53;3.70;;;2.00;;
16822;SDS011;8528;49.976;11.858;2022-09-09T08:58:30;3.17;;;1.80;;
16822;SDS011;8528;49.976;11.858;2022-09-09T09:09:46;3.93;;;2.30;;
16822;SDS011;8528;49.976;11.858;2022-09-09T09:12:41;3.13;;;2.47;;
16822;SDS011;8528;49.976;11.858;2022-09-09T09:15:23;3.90;;;2.70;;
16822;SDS011;8528;49.976;11.858;2022-09-09T09:17:55;3.73;;;2.43;;
16822;SDS011;8528;49.976;11.858;2022-09-09T09:20:36;3.57;;;2.50;;
16822;SDS011;8528;49.976;11.858;2022-09-09T09:23:18;3.60;;;2.77;;
16822;SDS011;8528;49.976;11.858;2022-09-09T09:25:48;4.93;;;3.80;;
16822;SDS011;8528;49.976;11.858;2022-09-09T09:28:26;4.07;;;3.20;;
16822;SDS011;8528;49.976;11.858;2022-09-09T09:31:06;3.80;;;3.50;;
16822;SDS011;8528;49.976;11.858;2022-09-09T09:33:49;3.83;;;3.40;;
16822;SDS011;8528;49.976;11.858;2022-09-09T09:36:24;6.03;;;3.93;;
16822;SDS011;8528;49.976;11.858;2022-09-09T09:39:00;5.13;;;3.80;;
16822;SDS011;8528;49.976;11.858;2022-09-09T09:41:49;4.70;;;3.80;;
16822;SDS011;8528;49.976;11.858;2022-09-09T09:44:24;6.50;;;4.13;;
16822;SDS011;8528;49.976;11.858;2022-09-09T09:47:06;5.33;;;4.00;;
16822;SDS011;8528;49.976;11.858;2022-09-09T09:49:39;5.63;;;3.60;;
16822;SDS011;8528;49.976;11.858;2022-09-09T09:52:17;6.07;;;3.70;;
16822;SDS011;8528;49.976;11.858;2022-09-09T09:54:48;4.03;;;3.57;;
16822;SDS011;8528;49.976;11.858;2022-09-09T09:57:15;5.07;;;3.70;;
16822;SDS011;8528;49.976;11.858;2022-09-09T09:59:44;4.47;;;3.60;;
16822;SDS011;8528;49.976;11.858;2022-09-09T10:02:16;5.77;;;3.40;;
16822;SDS011;8528;49.976;11.858;2022-09-09T10:05:02;4.53;;;3.23;;
16822;SDS011;8528;49.976;11.858;2022-09-09T10:07:45;4.53;;;3.37;;
16822;SDS011;8528;49.976;11.858;2022-09-09T10:10:15;4.30;;;3.23;;
16822;SDS011;8528;49.976;11.858;2022-09-09T10:21:20;2.90;;;2.60;;
16822;SDS011;8528;49.976;11.858;2022-09-09T10:32:01;5.10;;;3.00;;
16822;SDS011;8528;49.976;11.858;2022-09-09T10:37:27;5.33;;;3.50;;
16822;SDS011;8528;49.976;11.858;2022-09-09T10:57:50;4.33;;;2.57;;
16822;SDS011;8528;49.976;11.858;2022-09-09T11:00:21;3.43;;;2.17;;
16822;SDS011;8528;49.976;11.858;2022-09-09T11:03:02;4.40;;;2.30;;
16822;SDS011;8528;49.976;11.858;2022-09-09T11:05:31;4.93;;;2.40;;
16822;SDS011;8528;49.976;11.858;2022-09-09T11:08:20;2.63;;;1.80;;
16822;SDS011;8528;49.976;11.858;2022-09-09T11:13:35;3.30;;;3.00;;
16822;SDS011;8528;49.976;11.858;2022-09-09T11:19:04;3.57;;;3.07;;
16822;SDS011;8528;49.976;11.858;2022-09-09T11:21:42;3.60;;;2.60;;
16822;SDS011;8528;49.976;11.858;2022-09-09T11:24:21;7.43;;;2.60;;
16822;SDS011;8528;49.976;11.858;2022-09-09T11:41:17;3.70;;;2.30;;
16822;SDS011;8528;49.976;11.858;2022-09-09T11:43:47;3.83;;;2.10;;
16822;SDS011;8528;49.976;11.858;2022-09-09T11:46:18;3.87;;;2.20;;
16822;SDS011;8528;49.976;11.858;2022-09-09T11:49:00;5.37;;;2.10;;
16822;SDS011;8528;49.976;11.858;2022-09-09T11:51:30;6.17;;;2.77;;
16822;SDS011;8528;49.976;11.858;2022-09-09T11:54:02;7.17;;;2.53;;
16822;SDS011;8528;49.976;11.858;2022-09-09T11:57:00;7.83;;;3.17;;
16822;SDS011;8528;49.976;11.858;2022-09-09T11:59:34;8.10;;;2.47;;
16822;SDS011;8528;49.976;11.858;2022-09-09T12:05:00;4.60;;;1.47;;
16822;SDS011;8528;49.976;11.858;2022-09-09T12:07:47;2.30;;;0.93;;
16822;SDS011;8528;49.976;11.858;2022-09-09T12:10:30;1.80;;;1.30;;
16822;SDS011;8528;49.976;11.858;2022-09-09T12:13:22;1.83;;;1.13;;
16822;SDS011;8528;49.976;11.858;2022-09-09T12:15:52;3.43;;;1.07;;
16822;SDS011;8528;49.976;11.858;2022-09-09T12:18:24;2.83;;;1.10;;
16822;SDS011;8528;49.976;11.858;2022-09-09T12:23:48;1.63;;;1.10;;
16822;SDS011;8528;49.976;11.858;2022-09-09T12:26:32;1.93;;;1.10;;
16822;SDS011;8528;49.976;11.858;2022-09-09T12:29:21;3.43;;;1.20;;
16822;SDS011;8528;49.976;11.858;2022-09-09T12:32:11;2.30;;;1.20;;
16822;SDS011;8528;49.976;11.858;2022-09-09T12:34:49;1.47;;;1.20;;
16822;SDS011;8528;49.976;11.858;2022-09-09T12:37:27;2.00;;;1.10;;
16822;SDS011;8528;49.976;11.858;2022-09-09T12:40:02;3.30;;;1.20;;
16822;SDS011;8528;49.976;11.858;2022-09-09T12:42:31;1.60;;;1.00;;
16822;SDS011;8528;49.976;11.858;2022-09-09T12:45:15;2.03;;;1.10;;
16822;SDS011;8528;49.976;11.858;2022-09-09T12:50:27;2.67;;;1.30;;
16822;SDS011;8528;49.976;11.858;2022-09-09T12:53:15;4.23;;;1.50;;
16822;SDS011;8528;49.976;11.858;2022-09-09T12:56:04;2.90;;;1.20;;
16822;SDS011;8528;49.976;11.858;2022-09-09T12:58:38;3.67;;;1.73;;
16822;SDS011;8528;49.976;11.858;2022-09-09T13:01:18;3.47;;;1.33;;
16822;SDS011;8528;49.976;11.858;2022-09-09T13:03:49;2.27;;;1.20;;
16822;SDS011;8528;49.976;11.858;2022-09-09T13:08:54;5.20;;;1.30;;
16822;SDS011;8528;49.976;11.858;2022-09-09T13:11:28;4.03;;;1.53;;
16822;SDS011;8528;49.976;11.858;2022-09-09T13:14:04;4.30;;;1.40;;
16822;SDS011;8528;49.976;11.858;2022-09-09T13:16:34;1.57;;;1.20;;
16822;SDS011;8528;49.976;11.858;2022-09-09T13:19:17;1.67;;;1.03;;
16822;SDS011;8528;49.976;11.858;2022-09-09T13:21:44;1.70;;;0.90;;
16822;SDS011;8528;49.976;11.858;2022-09-09T13:27:04;3.50;;;1.10;;
16822;SDS011;8528;49.976;11.858;2022-09-09T13:29:52;1.90;;;1.00;;
16822;SDS011;8528;49.976;11.858;2022-09-09T13:32:24;10.47;;;2.30;;
16822;SDS011;8528;49.976;11.858;2022-09-09T13:34:59;6.27;;;1.60;;
16822;SDS011;8528;49.976;11.858;2022-09-09T13:37:38;1.80;;;1.20;;
16822;SDS011;8528;49.976;11.858;2022-09-09T13:40:16;2.13;;;1.10;;
16822;SDS011;8528;49.976;11.858;2022-09-09T13:42:46;3.13;;;1.30;;
16822;SDS011;8528;49.976;11.858;2022-09-09T13:45:21;3.50;;;1.13;;
16822;SDS011;8528;49.976;11.858;2022-09-09T13:47:53;1.67;;;1.20;;
16822;SDS011;8528;49.976;11.858;2022-09-09T13:50:31;2.50;;;1.17;;
16822;SDS011;8528;49.976;11.858;2022-09-09T13:52:58;5.43;;;1.30;;
16822;SDS011;8528;49.976;11.858;2022-09-09T13:55:26;5.43;;;1.77;;
16822;SDS011;8528;49.976;11.858;2022-09-09T13:58:03;4.43;;;1.77;;
16822;SDS011;8528;49.976;11.858;2022-09-09T14:00:33;4.63;;;1.97;;
16822;SDS011;8528;49.976;11.858;2022-09-09T14:03:01;3.93;;;2.10;;
16822;SDS011;8528;49.976;11.858;2022-09-09T14:05:29;3.87;;;2.00;;
16822;SDS011;8528;49.976;11.858;2022-09-09T14:07:59;4.43;;;1.87;;
16822;SDS011;8528;49.976;11.858;2022-09-09T14:10:29;4.73;;;2.00;;
16822;SDS011;8528;49.976;11.858;2022-09-09T14:12:55;5.23;;;1.93;;
16822;SDS011;8528;49.976;11.858;2022-09-09T14:15:23;3.97;;;1.83;;
16822;SDS011;8528;49.976;11.858;2022-09-09T14:17:50;4.53;;;2.00;;
16822;SDS011;8528;49.976;11.858;2022-09-09T14:20:21;5.77;;;2.03;;
16822;SDS011;8528;49.976;11.858;2022-09-09T14:22:53;4.37;;;1.93;;
16822;SDS011;8528;49.976;11.858;2022-09-09T14:25:28;5.63;;;2.40;;
16822;SDS011;8528;49.976;11.858;2022-09-09T14:27:58;2.03;;;1.87;;
16822;SDS011;8528;49.976;11.858;2022-09-09T14:30:32;3.23;;;1.50;;
16822;SDS011;8528;49.976;11.858;2022-09-09T14:33:02;1.50;;;1.40;;
16822;SDS011;8528;49.976;11.858;2022-09-09T14:35:35;3.50;;;2.17;;
16822;SDS011;8528;49.976;11.858;2022-09-09T14:38:04;1.60;;;1.43;;
16822;SDS011;8528;49.976;11.858;2022-09-09T14:40:31;1.50;;;1.20;;
16822;SDS011;8528;49.976;11.858;2022-09-09T14:43:01;3.20;;;1.63;;
16822;SDS011;8528;49.976;11.858;2022-09-09T14:45:28;3.10;;;1.80;;
16822;SDS011;8528;49.976;11.858;2022-09-09T14:47:55;4.10;;;1.90;;
16822;SDS011;8528;49.976;11.858;2022-09-09T14:50:23;2.70;;;2.13;;
16822;SDS011;8528;49.976;11.858;2022-09-09T14:52:50;2.60;;;1.70;;
16822;SDS011;8528;49.976;11.858;2022-09-09T14:55:17;2.37;;;1.40;;
16822;SDS011;8528;49.976;11.858;2022-09-09T14:57:45;3.33;;;1.40;;
16822;SDS011;8528;49.976;11.858;2022-09-09T15:00:12;1.20;;;1.10;;
16822;SDS011;8528;49.976;11.858;2022-09-09T15:02:40;1.10;;;1.00;;
16822;SDS011;8528;49.976;11.858;2022-09-09T15:05:07;1.40;;;0.90;;
16822;SDS011;8528;49.976;11.858;2022-09-09T15:07:34;1.90;;;1.03;;
16822;SDS011;8528;49.976;11.858;2022-09-09T15:10:02;2.80;;;1.10;;
16822;SDS011;8528;49.976;11.858;2022-09-09T15:12:29;2.23;;;1.30;;
16822;SDS011;8528;49.976;11.858;2022-09-09T15:14:59;1.20;;;1.10;;
16822;SDS011;8528;49.976;11.858;2022-09-09T15:17:29;1.70;;;1.10;;
16822;SDS011;8528;49.976;11.858;2022-09-09T15:19:56;1.20;;;1.10;;
16822;SDS011;8528;49.976;11.858;2022-09-09T15:22:23;1.83;;;1.20;;
16822;SDS011;8528;49.976;11.858;2022-09-09T15:24:50;2.00;;;1.10;;
16822;SDS011;8528;49.976;11.858;2022-09-09T15:27:20;1.23;;;1.10;;
16822;SDS011;8528;49.976;11.858;2022-09-09T15:29:47;1.73;;;1.00;;
16822;SDS011;8528;49.976;11.858;2022-09-09T15:32:14;1.60;;;1.07;;
16822;SDS011;8528;49.976;11.858;2022-09-09T15:34:44;1.20;;;1.08;;
16822;SDS011;8528;49.976;11.858;2022-09-09T15:37:12;2.05;;;1.08;;
16822;SDS011;8528;49.976;11.858;2022-09-09T15:39:39;1.77;;;1.10;;
16822;SDS011;8528;49.976;11.858;2022-09-09T15:42:07;1.13;;;0.93;;
16822;SDS011;8528;49.976;11.858;2022-09-09T15:44:38;3.10;;;1.10;;
16822;SDS011;8528;49.976;11.858;2022-09-09T15:47:06;1.40;;;1.10;;
16822;SDS011;8528;49.976;11.858;2022-09-09T15:49:39;2.78;;;1.02;;
16822;SDS011;8528;49.976;11.858;2022-09-09T15:52:06;4.13;;;1.20;;
16822;SDS011;8528;49.976;11.858;2022-09-09T15:54:40;1.60;;;1.10;;
16822;SDS011;8528;49.976;11.858;2022-09-09T15:57:11;1.80;;;1.20;;
16822;SDS011;8528;49.976;11.858;2022-09-09T15:59:39;2.00;;;1.17;;
16822;SDS011;8528;49.976;11.858;2022-09-09T16:02:08;2.80;;;1.23;;
16822;SDS011;8528;49.976;11.858;2022-09-09T16:04:36;3.13;;;1.10;;
16822;SDS011;8528;49.976;11.858;2022-09-09T16:07:04;2.10;;;1.23;;
16822;SDS011;8528;49.976;11.858;2022-09-09T16:09:32;2.17;;;1.30;;
16822;SDS011;8528;49.976;11.858;2022-09-09T16:14:45;3.90;;;1.40;;
16822;SDS011;8528;49.976;11.858;2022-09-09T16:17:14;2.10;;;1.70;;
16822;SDS011;8528;49.976;11.858;2022-09-09T16:19:41;2.23;;;1.40;;
16822;SDS011;8528;49.976;11.858;2022-09-09T16:22:08;3.43;;;1.40;;
16822;SDS011;8528;49.976;11.858;2022-09-09T16:24:37;2.40;;;1.30;;
16822;SDS011;8528;49.976;11.858;2022-09-09T16:27:04;2.17;;;1.33;;
16822;SDS011;8528;49.976;11.858;2022-09-09T16:29:31;3.43;;;1.40;;
16822;SDS011;8528;49.976;11.858;2022-09-09T16:31:58;3.53;;;1.60;;
16822;SDS011;8528;49.976;11.858;2022-09-09T16:34:29;3.47;;;1.77;;
16822;SDS011;8528;49.976;11.858;2022-09-09T16:36:56;1.63;;;1.50;;
16822;SDS011;8528;49.976;11.858;2022-09-09T16:39:22;2.20;;;1.57;;
16822;SDS011;8528;49.976;11.858;2022-09-09T16:41:49;6.03;;;1.57;;
16822;SDS011;8528;49.976;11.858;2022-09-09T16:44:17;4.53;;;2.33;;
16822;SDS011;8528;49.976;11.858;2022-09-09T16:46:48;4.47;;;2.10;;
16822;SDS011;8528;49.976;11.858;2022-09-09T16:49:32;4.30;;;1.93;;
16822;SDS011;8528;49.976;11.858;2022-09-09T16:51:59;2.53;;;1.90;;
16822;SDS011;8528;49.976;11.858;2022-09-09T16:54:27;2.43;;;1.90;;
16822;SDS011;8528;49.976;11.858;2022-09-09T16:56:55;5.13;;;2.90;;
16822;SDS011;8528;49.976;11.858;2022-09-09T16:59:22;5.53;;;3.60;;
16822;SDS011;8528;49.976;11.858;2022-09-09T17:01:51;5.13;;;3.17;;
16822;SDS011;8528;49.976;11.858;2022-09-09T17:04:20;3.30;;;2.47;;
16822;SDS011;8528;49.976;11.858;2022-09-09T17:06:51;7.27;;;4.43;;
16822;SDS011;8528;49.976;11.858;2022-09-09T17:09:26;6.90;;;5.00;;
16822;SDS011;8528;49.976;11.858;2022-09-09T17:11:57;5.77;;;3.80;;
16822;SDS011;8528;49.976;11.858;2022-09-09T17:14:27;2.90;;;2.47;;
16822;SDS011;8528;49.976;11.858;2022-09-09T17:16:57;2.77;;;1.97;;
16822;SDS011;8528;49.976;11.858;2022-09-09T17:19:44;4.87;;;2.73;;
16822;SDS011;8528;49.976;11.858;2022-09-09T17:22:11;2.47;;;1.70;;